Time;durP1;ratioP1;P1;durP2;ratioP2;P2;SDS_P1;SDS_P2;PMS_P1;PMS_P2;Temp;Humidity;BMP_temperature;BMP_pressure;BME280_temperature;BME280_humidity;BME280_pressure;Samples;Min_cycle;Max_cycle;Signal;HPM_P1;HPM_P2
2021/01/01 00:01:46;;;;;;;11.30;4.72;;;5.40;74.80;;;;;;5026025;28;80518;-67
2021/01/01 00:04:12;;;;;;;10.52;5.43;;;5.40;74.60;;;;;;5007920;28;80980;-78
2021/01/01 00:06:39;;;;;;;4.20;2.45;;;5.50;74.30;;;;;;5026676;28;80617;-71
2021/01/01 00:09:06;;;;;;;6.65;3.45;;;5.50;74.00;;;;;;5025326;28;80333;-72
2021/01/01 00:11:32;;;;;;;8.10;4.78;;;5.50;73.90;;;;;;5007790;28;81095;-76
2021/01/01 00:13:57;;;;;;;11.30;4.95;;;5.60;73.70;;;;;;5025872;28;80255;-77
2021/01/01 00:16:23;;;;;;;6.95;3.42;;;5.60;73.60;;;;;;5026670;28;80845;-70
2021/01/01 00:18:49;;;;;;;7.10;2.58;;;5.60;73.50;;;;;;5026421;28;80598;-70
2021/01/01 00:21:15;;;;;;;6.80;3.65;;;5.60;73.50;;;;;;5026106;28;81705;-76
2021/01/01 00:23:41;;;;;;;6.93;3.38;;;5.60;73.40;;;;;;5025530;28;80284;-73
2021/01/01 00:26:11;;;;;;;15.88;5.40;;;5.70;73.90;;;;;;5026282;28;80406;-75
2021/01/01 00:28:42;;;;;;;9.48;4.32;;;5.70;74.20;;;;;;5026143;28;79852;-69
2021/01/01 00:31:15;;;;;;;10.02;5.30;;;5.70;74.50;;;;;;5026485;28;80667;-69
2021/01/01 00:33:41;;;;;;;11.30;5.45;;;5.70;74.80;;;;;;5025938;28;80266;-76
2021/01/01 00:36:08;;;;;;;7.55;4.13;;;5.60;75.00;;;;;;5025947;28;81135;-70
2021/01/01 00:38:34;;;;;;;7.70;4.13;;;5.60;74.90;;;;;;5026235;28;79831;-69
2021/01/01 00:40:59;;;;;;;11.98;3.75;;;5.60;74.80;;;;;;5025963;28;80494;-77
2021/01/01 00:43:25;;;;;;;6.18;3.13;;;5.70;74.20;;;;;;5025549;28;81127;-76
2021/01/01 00:45:51;;;;;;;5.15;2.50;;;5.70;73.60;;;;;;5026473;28;81019;-73
2021/01/01 00:48:17;;;;;;;4.35;1.75;;;5.80;73.00;;;;;;5026287;28;79900;-72
2021/01/01 00:50:42;;;;;;;2.90;1.27;;;5.80;72.60;;;;;;5025612;28;81073;-70
2021/01/01 00:53:08;;;;;;;3.25;1.40;;;5.80;72.10;;;;;;5026156;28;80032;-71
2021/01/01 00:55:34;;;;;;;1.95;0.80;;;5.80;71.90;;;;;;5026811;28;79996;-71
2021/01/01 00:57:59;;;;;;;3.63;1.30;;;5.70;71.50;;;;;;5025821;28;80086;-72
2021/01/01 01:00:25;;;;;;;5.03;1.67;;;5.80;71.50;;;;;;5007489;28;82149;-74
2021/01/01 01:02:51;;;;;;;3.88;1.08;;;5.80;71.40;;;;;;5007160;28;81443;-78
2021/01/01 01:05:18;;;;;;;2.50;0.90;;;5.80;71.30;;;;;;5007344;28;80959;-73
2021/01/01 01:07:44;;;;;;;2.58;1.23;;;5.80;71.30;;;;;;5025879;28;81448;-76
2021/01/01 01:10:12;;;;;;;2.80;1.00;;;5.90;71.20;;;;;;5007461;28;82033;-76
2021/01/01 01:12:39;;;;;;;6.10;1.80;;;5.90;71.20;;;;;;5025966;28;79743;-75
2021/01/01 01:15:07;;;;;;;4.30;1.75;;;5.90;71.30;;;;;;5028699;28;81130;-75
2021/01/01 01:17:33;;;;;;;5.90;2.17;;;5.90;71.30;;;;;;5029073;28;80692;-76
2021/01/01 01:19:59;;;;;;;5.03;1.73;;;5.90;71.30;;;;;;5028571;28;83050;-75
2021/01/01 01:22:25;;;;;;;4.35;1.60;;;5.90;71.20;;;;;;5010915;28;80438;-76
2021/01/01 01:24:51;;;;;;;5.63;1.60;;;5.90;71.10;;;;;;5010365;28;80958;-76
2021/01/01 01:27:17;;;;;;;2.88;1.15;;;5.90;71.10;;;;;;5028461;28;80008;-75
2021/01/01 01:29:44;;;;;;;5.65;1.23;;;5.90;71.20;;;;;;5029163;28;80464;-72
2021/01/01 01:32:09;;;;;;;5.13;1.40;;;5.90;71.30;;;;;;5029205;28;80173;-71
2021/01/01 01:34:38;;;;;;;3.47;1.67;;;5.80;71.30;;;;;;5010677;28;80790;-70
2021/01/01 01:37:04;;;;;;;4.18;1.27;;;5.80;71.30;;;;;;5028416;28;80433;-72
2021/01/01 01:39:29;;;;;;;5.60;1.40;;;5.80;71.40;;;;;;5027991;28;80598;-73
2021/01/01 01:41:55;;;;;;;2.63;1.05;;;5.90;71.40;;;;;;5028358;28;80166;-72
2021/01/01 01:44:21;;;;;;;5.78;1.95;;;5.90;71.40;;;;;;5010254;28;83633;-77
2021/01/01 01:46:47;;;;;;;4.63;1.85;;;5.90;71.60;;;;;;5028179;28;81496;-74
2021/01/01 01:49:15;;;;;;;2.80;1.02;;;5.90;72.10;;;;;;5027471;28;81066;-70
2021/01/01 01:51:46;;;;;;;2.20;0.88;;;5.90;71.90;;;;;;5028704;28;79702;-76
2021/01/01 01:54:13;;;;;;;4.50;1.17;;;5.90;71.60;;;;;;5028129;28;80382;-76
2021/01/01 01:56:40;;;;;;;2.63;1.38;;;6.00;71.30;;;;;;5028438;28;79858;-72
2021/01/01 01:59:06;;;;;;;3.25;1.23;;;6.00;70.70;;;;;;5027853;28;80657;-77
2021/01/01 02:01:32;;;;;;;3.55;1.75;;;6.10;70.50;;;;;;5028126;28;80353;-73
2021/01/01 02:03:58;;;;;;;1.85;0.50;;;6.10;70.00;;;;;;5028457;28;80543;-80
2021/01/01 02:06:23;;;;;;;4.45;1.52;;;6.00;69.80;;;;;;5028160;28;79875;-81
2021/01/01 02:08:51;;;;;;;2.90;0.40;;;6.10;69.90;;;;;;5028251;28;80473;-78
2021/01/01 02:11:16;;;;;;;3.13;0.47;;;6.10;69.80;;;;;;5027903;28;80442;-72
2021/01/01 02:13:46;;;;;;;2.67;0.45;;;6.10;69.70;;;;;;5028583;28;79785;-80
2021/01/01 02:16:14;;;;;;;4.50;0.80;;;6.10;69.70;;;;;;5028581;28;80205;-76
2021/01/01 02:18:42;;;;;;;2.85;1.15;;;6.20;69.70;;;;;;5028032;28;80589;-72
2021/01/01 02:21:11;;;;;;;4.25;1.27;;;6.20;69.70;;;;;;5028348;28;79795;-71
2021/01/01 02:23:37;;;;;;;3.20;0.90;;;6.20;69.90;;;;;;5027230;28;79972;-75
2021/01/01 02:26:03;;;;;;;2.08;0.93;;;6.20;70.10;;;;;;5009489;28;82456;-74
2021/01/01 02:28:29;;;;;;;2.03;0.73;;;6.20;70.30;;;;;;5027610;28;79904;-72
2021/01/01 02:30:55;;;;;;;4.95;0.80;;;6.30;70.00;;;;;;5009753;28;81535;-74
2021/01/01 02:33:21;;;;;;;2.85;0.95;;;6.40;69.90;;;;;;5027703;28;79730;-76
2021/01/01 02:35:47;;;;;;;2.00;0.73;;;6.40;69.80;;;;;;5026942;28;82154;-74
2021/01/01 02:38:12;;;;;;;1.50;0.50;;;6.40;69.50;;;;;;5027324;28;82803;-71
2021/01/01 02:40:38;;;;;;;2.00;0.32;;;6.40;69.40;;;;;;5027421;28;80250;-74
2021/01/01 02:43:04;;;;;;;1.63;0.63;;;6.40;69.50;;;;;;5009012;28;81851;-71
2021/01/01 02:45:31;;;;;;;1.90;0.60;;;6.50;69.60;;;;;;5009142;28;81839;-72
2021/01/01 02:48:08;;;;;;;1.73;0.50;;;6.50;69.60;;;;;;5009375;28;80770;-72
2021/01/01 02:50:34;;;;;;;1.48;0.63;;;6.50;69.50;;;;;;5027571;28;80299;-72
2021/01/01 02:53:02;;;;;;;1.48;0.45;;;6.50;69.60;;;;;;5027363;28;80525;-70
2021/01/01 02:55:27;;;;;;;1.80;0.55;;;6.40;70.00;;;;;;5027599;28;79855;-74
2021/01/01 02:57:53;;;;;;;2.03;0.40;;;6.50;70.30;;;;;;5026546;28;81652;-72
2021/01/01 03:00:22;;;;;;;2.58;0.30;;;6.50;70.10;;;;;;5009634;28;80052;-72
2021/01/01 03:02:48;;;;;;;1.52;0.68;;;6.50;70.30;;;;;;5007963;28;81062;-73
2021/01/01 03:05:13;;;;;;;0.55;0.20;;;6.50;70.50;;;;;;5008892;28;80651;-75
2021/01/01 03:07:39;;;;;;;1.70;0.40;;;6.50;70.40;;;;;;5026933;28;81589;-79
2021/01/01 03:10:07;;;;;;;1.60;0.52;;;6.40;70.30;;;;;;5008755;28;83432;-76
2021/01/01 03:12:32;;;;;;;1.25;0.45;;;6.40;70.40;;;;;;5027055;28;81024;-78
2021/01/01 03:14:58;;;;;;;2.15;0.80;;;6.40;70.20;;;;;;4991805;28;80724;-73
2021/01/01 03:17:24;;;;;;;1.65;0.55;;;6.30;70.20;;;;;;5009016;28;82195;-77
2021/01/01 03:19:50;;;;;;;1.77;0.52;;;6.20;70.20;;;;;;5027361;28;79741;-77
2021/01/01 03:22:16;;;;;;;2.03;0.55;;;6.10;70.30;;;;;;5008649;28;81155;-76
2021/01/01 03:24:41;;;;;;;2.13;0.75;;;6.00;70.10;;;;;;5008864;28;79997;-78
2021/01/01 03:27:07;;;;;;;2.17;0.60;;;5.90;70.10;;;;;;5008217;28;84865;-75
2021/01/01 03:29:33;;;;;;;1.42;0.65;;;5.90;70.20;;;;;;5027114;28;80812;-76
2021/01/01 03:31:58;;;;;;;1.70;0.60;;;5.90;70.20;;;;;;5026333;28;81439;-73
2021/01/01 03:34:24;;;;;;;3.25;1.13;;;5.80;70.50;;;;;;5008525;28;80489;-76
2021/01/01 03:36:50;;;;;;;4.43;1.23;;;5.80;70.50;;;;;;5025814;28;80729;-73
2021/01/01 03:39:18;;;;;;;2.22;0.65;;;5.70;70.70;;;;;;5025985;28;80843;-74
2021/01/01 03:41:43;;;;;;;2.15;0.45;;;5.70;71.00;;;;;;5026795;28;80578;-74
2021/01/01 03:44:09;;;;;;;0.73;0.35;;;5.70;71.10;;;;;;5026160;28;79866;-72
2021/01/01 03:46:35;;;;;;;0.85;0.30;;;5.60;70.90;;;;;;5026055;28;82873;-74
2021/01/01 03:49:00;;;;;;;1.35;0.40;;;5.50;71.00;;;;;;5007962;28;80620;-77
2021/01/01 03:51:26;;;;;;;3.30;1.58;;;5.50;71.00;;;;;;5026382;28;80459;-71
2021/01/01 03:53:52;;;;;;;8.13;3.60;;;5.40;71.00;;;;;;5008164;28;82222;-72
2021/01/01 03:56:18;;;;;;;6.20;3.97;;;5.40;71.10;;;;;;5026412;28;80705;-71
2021/01/01 03:58:43;;;;;;;3.40;1.10;;;5.40;71.30;;;;;;5026627;28;80186;-75
2021/01/01 04:01:09;;;;;;;4.32;1.55;;;5.40;71.30;;;;;;5026276;28;80624;-76
2021/01/01 04:03:35;;;;;;;2.85;1.20;;;5.30;71.30;;;;;;5026685;28;80391;-75
2021/01/01 04:06:00;;;;;;;1.35;0.70;;;5.30;71.40;;;;;;5026250;28;80782;-77
2021/01/01 04:08:26;;;;;;;2.33;0.65;;;5.30;71.50;;;;;;5026483;28;80716;-71
2021/01/01 04:10:52;;;;;;;2.08;0.68;;;5.30;71.60;;;;;;5026370;28;80366;-72
2021/01/01 04:13:18;;;;;;;2.75;0.88;;;5.20;71.70;;;;;;5026013;28;79839;-74
2021/01/01 04:15:44;;;;;;;2.47;0.90;;;5.20;71.70;;;;;;5026524;28;79764;-77
2021/01/01 04:18:10;;;;;;;2.22;0.70;;;5.20;71.90;;;;;;5026329;28;80196;-79
2021/01/01 04:20:36;;;;;;;1.25;0.60;;;5.20;72.20;;;;;;5026412;28;80594;-80
2021/01/01 04:23:02;;;;;;;2.42;1.00;;;5.20;72.60;;;;;;5026015;28;80502;-74
2021/01/01 04:25:28;;;;;;;2.05;0.93;;;5.20;72.80;;;;;;5025930;28;80680;-75
2021/01/01 04:27:53;;;;;;;1.75;0.68;;;5.20;72.90;;;;;;5026211;28;80617;-75
2021/01/01 04:30:20;;;;;;;2.28;1.00;;;5.10;73.00;;;;;;5025728;28;81134;-79
2021/01/01 04:32:46;;;;;;;2.58;1.08;;;5.20;73.20;;;;;;5026520;28;79774;-85
2021/01/01 04:35:11;;;;;;;5.07;1.27;;;5.10;73.30;;;;;;5007486;28;81795;-84
2021/01/01 04:37:38;;;;;;;1.13;0.38;;;5.10;73.00;;;;;;5025718;28;79941;-81
2021/01/01 04:40:05;;;;;;;1.75;0.60;;;5.10;72.50;;;;;;5025992;28;80733;-80
2021/01/01 04:42:31;;;;;;;0.93;0.50;;;5.10;72.30;;;;;;5026228;28;80308;-82
2021/01/01 04:44:58;;;;;;;2.60;1.20;;;5.00;72.00;;;;;;5007940;28;80741;-76
2021/01/01 04:47:26;;;;;;;3.33;1.40;;;5.00;71.90;;;;;;5026110;28;79701;-75
2021/01/01 04:49:53;;;;;;;3.75;1.52;;;5.10;71.90;;;;;;5029917;28;79853;-72
2021/01/01 04:52:19;;;;;;;2.83;1.60;;;5.10;71.90;;;;;;5011017;28;79925;-75
2021/01/01 04:54:46;;;;;;;3.25;1.17;;;5.10;72.10;;;;;;5029846;28;80683;-75
2021/01/01 04:57:12;;;;;;;1.83;0.68;;;5.00;72.00;;;;;;5028439;28;80264;-78
2021/01/01 04:59:38;;;;;;;1.65;0.60;;;5.00;71.70;;;;;;5029008;28;82891;-77
2021/01/01 05:02:04;;;;;;;2.65;1.20;;;5.00;71.50;;;;;;5028553;28;80170;-76
2021/01/01 05:04:29;;;;;;;2.90;1.45;;;5.00;71.40;;;;;;5010868;28;81090;-74
2021/01/01 05:06:56;;;;;;;4.82;1.83;;;5.00;71.30;;;;;;5029334;28;80288;-72
2021/01/01 05:09:22;;;;;;;4.40;1.85;;;5.10;71.20;;;;;;5028470;28;80543;-72
2021/01/01 05:11:48;;;;;;;1.95;0.90;;;5.10;70.90;;;;;;5029278;28;79792;-71
2021/01/01 05:14:13;;;;;;;2.45;0.50;;;5.10;70.70;;;;;;5010483;28;80736;-73
2021/01/01 05:16:52;;;;;;;3.80;0.65;;;5.00;70.50;;;;;;5028738;28;80316;-69
2021/01/01 05:19:18;;;;;;;1.67;0.60;;;5.10;70.60;;;;;;5027953;28;80613;-75
2021/01/01 05:21:44;;;;;;;1.42;0.65;;;5.00;70.60;;;;;;5028418;28;80787;-73
2021/01/01 05:24:15;;;;;;;1.88;0.82;;;4.90;70.60;;;;;;5010506;28;82094;-75
2021/01/01 05:26:50;;;;;;;1.85;1.05;;;4.90;70.70;;;;;;5028498;28;80108;-76
2021/01/01 05:29:31;;;;;;;1.88;0.75;;;4.90;70.80;;;;;;5028845;28;80512;-74
2021/01/01 05:31:57;;;;;;;3.15;1.40;;;4.90;70.90;;;;;;5028827;28;79888;-77
2021/01/01 05:34:25;;;;;;;2.85;1.60;;;4.90;70.90;;;;;;5028601;28;81008;-73
2021/01/01 05:36:51;;;;;;;3.38;1.60;;;4.90;70.80;;;;;;5029228;28;80243;-80
2021/01/01 05:39:16;;;;;;;3.08;1.20;;;4.90;70.80;;;;;;5028529;28;80474;-77
2021/01/01 05:41:45;;;;;;;2.35;1.10;;;4.90;70.80;;;;;;5028459;28;79993;-74
2021/01/01 05:44:24;;;;;;;2.72;1.45;;;4.90;70.80;;;;;;5028340;28;81076;-73
2021/01/01 05:46:56;;;;;;;3.00;1.83;;;4.90;70.60;;;;;;5010025;28;79773;-76
2021/01/01 05:49:24;;;;;;;3.88;1.65;;;4.90;70.10;;;;;;5028579;28;81090;-76
2021/01/01 05:52:34;;;;;;;4.85;1.98;;;4.90;69.80;;;;;;5028602;28;80784;-75
2021/01/01 05:55:01;;;;;;;1.27;0.47;;;4.90;69.30;;;;;;5006368;28;80522;-70
2021/01/01 05:57:38;;;;;;;1.88;0.65;;;4.90;69.00;;;;;;5009995;28;79983;-72
2021/01/01 06:00:12;;;;;;;1.90;0.55;;;4.90;68.70;;;;;;5027910;28;80822;-71
2021/01/01 06:02:40;;;;;;;1.40;0.40;;;4.90;68.60;;;;;;5009847;28;81405;-75
2021/01/01 06:05:15;;;;;;;1.20;0.40;;;4.90;68.40;;;;;;5009866;28;80844;-73
2021/01/01 06:07:41;;;;;;;0.65;0.28;;;4.90;68.30;;;;;;5006124;28;79740;-76
2021/01/01 06:10:09;;;;;;;0.82;0.32;;;4.90;68.00;;;;;;5010401;28;79825;-75
2021/01/01 06:12:38;;;;;;;1.40;0.60;;;4.80;68.10;;;;;;5028158;28;80226;-72
2021/01/01 06:15:07;;;;;;;1.85;0.50;;;4.80;68.20;;;;;;5009748;28;80646;-73
2021/01/01 06:17:49;;;;;;;3.80;0.75;;;4.80;68.70;;;;;;5028272;28;79813;-73
2021/01/01 06:20:36;;;;;;;1.70;0.68;;;4.80;69.20;;;;;;5028920;28;79835;-73
2021/01/01 06:23:05;;;;;;;2.50;0.70;;;4.70;69.40;;;;;;5028988;28;80843;-75
2021/01/01 06:25:34;;;;;;;1.38;0.50;;;4.70;69.40;;;;;;5009947;28;80719;-75
2021/01/01 06:28:02;;;;;;;1.27;0.32;;;4.70;69.00;;;;;;5028549;28;80326;-71
2021/01/01 06:30:28;;;;;;;0.90;0.17;;;4.70;68.70;;;;;;5009745;28;80754;-75
2021/01/01 06:32:56;;;;;;;0.93;0.32;;;4.70;68.50;;;;;;5009480;28;80621;-71
2021/01/01 06:35:24;;;;;;;1.23;0.50;;;4.60;68.60;;;;;;5027500;28;82487;-73
2021/01/01 06:37:52;;;;;;;2.28;0.90;;;4.60;68.60;;;;;;5009492;28;83689;-72
2021/01/01 06:40:20;;;;;;;2.35;0.80;;;4.60;68.60;;;;;;5027610;28;80730;-78
2021/01/01 06:42:52;;;;;;;0.82;0.35;;;4.60;68.70;;;;;;5027964;28;80698;-77
2021/01/01 06:45:40;;;;;;;1.05;0.32;;;4.60;68.60;;;;;;5009202;28;82716;-71
2021/01/01 06:48:29;;;;;;;0.77;0.20;;;4.60;68.50;;;;;;5027395;28;80148;-70
2021/01/01 06:50:55;;;;;;;0.65;0.10;;;4.60;68.40;;;;;;5027543;28;81151;-76
2021/01/01 06:53:28;;;;;;;0.10;0.00;;;4.60;68.40;;;;;;5027362;28;80230;-73
2021/01/01 06:56:16;;;;;;;;;;;4.60;68.50;;;;;;5010127;28;81845;-71
2021/01/01 06:58:41;;;;;;;1.00;0.40;;;4.50;68.40;;;;;;5031089;28;79635;-71
2021/01/01 07:01:17;;;;;;;0.82;0.40;;;4.40;68.80;;;;;;5026842;28;80448;-77
2021/01/01 07:03:44;;;;;;;1.20;0.40;;;4.50;68.90;;;;;;5027334;28;80160;-79
2021/01/01 07:06:13;;;;;;;1.08;0.40;;;4.50;68.90;;;;;;5027686;28;80525;-79
2021/01/01 07:08:45;;;;;;;1.33;0.30;;;4.50;69.00;;;;;;5027008;28;80375;-79
2021/01/01 07:11:11;;;;;;;0.45;0.10;;;4.50;68.90;;;;;;5026153;28;80316;-77
2021/01/01 07:13:43;;;;;;;0.98;0.32;;;4.50;69.00;;;;;;5027191;28;80238;-77
2021/01/01 07:16:10;;;;;;;0.57;0.28;;;4.60;69.00;;;;;;5027125;28;81123;-79
2021/01/01 07:18:36;;;;;;;0.80;0.30;;;4.60;68.80;;;;;;5027208;28;80868;-73
2021/01/01 07:21:06;;;;;;;0.60;0.17;;;4.60;68.80;;;;;;5027288;28;80714;-71
2021/01/01 07:23:33;;;;;;;0.88;0.20;;;4.60;68.60;;;;;;5027272;28;79661;-75
2021/01/01 07:26:00;;;;;;;1.23;0.40;;;4.60;68.60;;;;;;5027371;28;80608;-80
2021/01/01 07:28:27;;;;;;;0.88;0.28;;;4.60;68.60;;;;;;5027089;28;79845;-75
2021/01/01 07:30:53;;;;;;;1.63;0.47;;;4.60;68.60;;;;;;5026492;28;82439;-81
2021/01/01 07:33:20;;;;;;;1.27;0.30;;;4.60;68.60;;;;;;5008492;28;80053;-83
2021/01/01 07:35:54;;;;;;;2.58;0.50;;;4.60;68.60;;;;;;5008383;28;80810;-82
2021/01/01 07:38:21;;;;;;;0.90;0.30;;;4.70;68.60;;;;;;5006717;28;80548;-77
2021/01/01 07:40:47;;;;;;;1.35;0.50;;;4.60;68.50;;;;;;5008252;28;80621;-76
2021/01/01 07:43:13;;;;;;;1.65;0.60;;;4.50;68.50;;;;;;5008663;28;80778;-72
2021/01/01 07:45:39;;;;;;;2.95;0.75;;;4.50;68.40;;;;;;5026169;28;80706;-72
2021/01/01 07:48:06;;;;;;;2.10;0.80;;;4.50;68.40;;;;;;5026462;28;80270;-72
2021/01/01 07:50:32;;;;;;;2.72;0.93;;;4.50;68.50;;;;;;5026043;28;79902;-72
2021/01/01 07:53:06;;;;;;;1.70;0.70;;;4.40;68.60;;;;;;5026457;28;80018;-72
2021/01/01 07:55:33;;;;;;;2.20;1.05;;;4.40;68.80;;;;;;5025342;28;80609;-72
2021/01/01 07:58:10;;;;;;;1.42;0.40;;;4.40;68.90;;;;;;5006913;28;81600;-72
2021/01/01 08:00:38;;;;;;;1.85;1.05;;;4.40;68.90;;;;;;5027338;28;79900;-72
2021/01/01 08:03:05;;;;;;;1.40;0.50;;;4.40;68.80;;;;;;5026438;28;80171;-72
2021/01/01 08:05:32;;;;;;;0.77;0.30;;;4.40;68.80;;;;;;5026198;28;82778;-72
2021/01/01 08:08:17;;;;;;;0.45;0.20;;;4.40;68.70;;;;;;5026127;28;80482;-72
2021/01/01 08:10:47;;;;;;;2.97;0.70;;;4.40;68.40;;;;;;5026666;28;79737;-72
2021/01/01 08:13:17;;;;;;;1.08;0.40;;;4.40;68.50;;;;;;5026409;28;79893;-72
2021/01/01 08:15:43;;;;;;;2.65;0.93;;;4.40;68.30;;;;;;5026494;28;80608;-71
2021/01/01 08:18:11;;;;;;;1.80;0.50;;;4.30;68.10;;;;;;5026384;28;80539;-71
2021/01/01 08:20:37;;;;;;;1.75;0.40;;;4.40;68.00;;;;;;5007505;28;83588;-70
2021/01/01 08:23:11;;;;;;;1.23;0.30;;;4.40;68.00;;;;;;5028770;28;79601;-73
2021/01/01 08:25:38;;;;;;;0.80;0.30;;;4.40;67.90;;;;;;5011517;28;81715;-71
2021/01/01 08:28:06;;;;;;;0.85;0.40;;;4.40;67.60;;;;;;5029444;28;82668;-72
2021/01/01 08:30:34;;;;;;;0.90;0.40;;;4.50;67.40;;;;;;5029891;28;80029;-71
2021/01/01 08:33:00;;;;;;;1.75;0.55;;;4.50;67.20;;;;;;5029209;28;82197;-71
2021/01/01 08:35:27;;;;;;;1.90;0.75;;;4.50;67.10;;;;;;5029040;28;83119;-72
2021/01/01 08:37:53;;;;;;;3.22;0.50;;;4.60;67.10;;;;;;5029835;28;80384;-70
2021/01/01 08:40:22;;;;;;;1.77;0.60;;;4.70;66.90;;;;;;5029633;28;80801;-71
2021/01/01 08:42:54;;;;;;;0.90;0.40;;;4.80;66.60;;;;;;5010697;28;83297;-71
2021/01/01 08:45:30;;;;;;;1.67;0.10;;;4.90;66.10;;;;;;5029470;28;80389;-74
2021/01/01 08:47:57;;;;;;;1.00;0.20;;;4.90;65.70;;;;;;5029603;28;80370;-73
2021/01/01 08:50:28;;;;;;;24.65;8.43;;;5.20;65.20;;;;;;5029359;28;79856;-73
2021/01/01 08:53:00;;;;;;;1.20;0.45;;;5.30;64.50;;;;;;5029432;28;80025;-74
2021/01/01 08:55:27;;;;;;;1.05;0.32;;;5.40;64.10;;;;;;5029209;28;82175;-65
2021/01/01 08:58:16;;;;;;;1.20;0.40;;;5.50;63.90;;;;;;5028948;28;80268;-66
2021/01/01 09:00:47;;;;;;;1.50;0.50;;;5.60;63.70;;;;;;5028779;28;82304;-65
2021/01/01 09:03:16;;;;;;;3.92;0.70;;;5.70;63.50;;;;;;5029288;28;80175;-67
2021/01/01 09:05:41;;;;;;;2.95;0.80;;;5.90;62.70;;;;;;5029383;28;79801;-66
2021/01/01 09:08:10;;;;;;;2.08;0.85;;;5.90;62.80;;;;;;5029285;28;80128;-66
2021/01/01 09:10:47;;;;;;;4.43;1.08;;;6.10;62.40;;;;;;5029866;28;81147;-65
2021/01/01 09:13:16;;;;;;;3.58;0.90;;;6.20;62.10;;;;;;5029127;28;80089;-66
2021/01/01 09:15:44;;;;;;;1.70;0.80;;;6.30;61.40;;;;;;5028974;28;80516;-66
2021/01/01 09:18:10;;;;;;;1.42;0.65;;;6.30;60.40;;;;;;5029122;28;80238;-67
2021/01/01 09:20:40;;;;;;;2.38;0.45;;;6.30;60.90;;;;;;5029440;28;80438;-68
2021/01/01 09:23:06;;;;;;;2.15;0.80;;;6.40;60.00;;;;;;5011044;28;82744;-66
2021/01/01 09:25:32;;;;;;;1.98;0.70;;;6.50;59.60;;;;;;5029846;28;79733;-66
2021/01/01 09:27:59;;;;;;;1.95;0.88;;;6.80;58.20;;;;;;5028974;28;80564;-66
2021/01/01 09:30:27;;;;;;;2.30;0.80;;;7.20;56.50;;;;;;5010554;28;82932;-66
2021/01/01 09:32:55;;;;;;;2.20;0.80;;;7.60;55.40;;;;;;5028856;28;80182;-67
2021/01/01 09:35:21;;;;;;;2.78;0.98;;;8.00;53.00;;;;;;5009454;28;83224;-68
2021/01/01 09:37:57;;;;;;;2.53;1.10;;;8.20;52.20;;;;;;5010495;28;80009;-68
2021/01/01 09:40:25;;;;;;;2.65;1.00;;;8.40;51.20;;;;;;5028900;28;80723;-68
2021/01/01 09:42:51;;;;;;;1.35;0.40;;;8.90;50.20;;;;;;5029570;28;79747;-69
2021/01/01 09:45:18;;;;;;;2.50;0.98;;;9.30;49.00;;;;;;5029218;28;81091;-69
2021/01/01 09:47:44;;;;;;;1.25;0.40;;;9.30;48.00;;;;;;5028909;28;80347;-69
2021/01/01 09:50:11;;;;;;;0.80;0.15;;;9.60;46.70;;;;;;5029118;28;80595;-66
2021/01/01 09:52:37;;;;;;;2.53;0.90;;;10.10;45.10;;;;;;5028584;28;80568;-69
2021/01/01 09:55:06;;;;;;;1.25;0.20;;;10.40;44.50;;;;;;5010959;28;80768;-69
2021/01/01 09:57:32;;;;;;;1.38;0.40;;;10.40;44.40;;;;;;5028090;28;80115;-69
2021/01/01 09:59:58;;;;;;;1.02;0.50;;;10.70;44.10;;;;;;5029097;28;79713;-61
2021/01/01 10:02:25;;;;;;;1.80;0.70;;;11.40;42.50;;;;;;5028453;28;81432;-62
2021/01/01 10:04:51;;;;;;;0.98;0.40;;;11.00;42.40;;;;;;5028949;28;80539;-59
2021/01/01 10:07:17;;;;;;;2.05;0.20;;;10.60;43.40;;;;;;5028543;28;80335;-59
2021/01/01 10:09:44;;;;;;;0.88;0.15;;;11.00;42.40;;;;;;5027812;28;80693;-59
2021/01/01 10:12:12;;;;;;;1.80;0.43;;;11.50;41.80;;;;;;5010504;28;80359;-60
2021/01/01 10:14:38;;;;;;;0.82;0.40;;;12.40;39.70;;;;;;5028131;28;79720;-59
2021/01/01 10:17:04;;;;;;;4.53;1.60;;;13.00;38.80;;;;;;5028252;28;80195;-60
2021/01/01 10:19:29;;;;;;;1.65;0.50;;;13.50;38.30;;;;;;5027314;28;80153;-59
2021/01/01 10:21:55;;;;;;;1.60;0.30;;;14.30;36.90;;;;;;5028168;28;80178;-60
2021/01/01 10:24:22;;;;;;;1.40;0.57;;;13.90;36.30;;;;;;5009648;28;83135;-59
2021/01/01 10:26:49;;;;;;;1.20;0.47;;;13.30;37.60;;;;;;5028074;28;80709;-60
2021/01/01 10:29:15;;;;;;;1.25;0.30;;;14.40;35.70;;;;;;5028359;28;79836;-60
2021/01/01 10:31:42;;;;;;;2.05;0.70;;;15.60;33.60;;;;;;5028092;28;80070;-60
2021/01/01 10:34:08;;;;;;;4.25;1.00;;;16.40;31.30;;;;;;5028103;28;80180;-60
2021/01/01 10:36:33;;;;;;;2.60;0.68;;;16.90;31.70;;;;;;5028161;28;80212;-60
2021/01/01 10:38:59;;;;;;;3.28;0.22;;;18.00;30.20;;;;;;5027863;28;80483;-60
2021/01/01 10:41:25;;;;;;;1.80;0.50;;;18.60;29.20;;;;;;5027878;28;80046;-60
2021/01/01 10:43:51;;;;;;;2.85;0.52;;;19.30;28.40;;;;;;5027714;28;80678;-60
2021/01/01 10:46:16;;;;;;;1.95;0.32;;;21.00;26.70;;;;;;5027659;28;80242;-60
2021/01/01 10:48:42;;;;;;;1.35;0.40;;;22.30;24.80;;;;;;5027255;28;81719;-61
2021/01/01 10:51:08;;;;;;;0.77;0.22;;;22.90;24.40;;;;;;5027700;28;80582;-60
2021/01/01 10:53:33;;;;;;;0.77;0.22;;;21.80;24.90;;;;;;5027088;28;80302;-60
2021/01/01 10:55:59;;;;;;;2.08;0.15;;;20.20;26.40;;;;;;5026592;28;80369;-61
2021/01/01 10:58:25;;;;;;;1.80;0.40;;;20.00;26.50;;;;;;5027509;28;80419;-60
2021/01/01 11:00:55;;;;;;;1.42;0.52;;;20.20;26.50;;;;;;5027367;28;80060;-61
2021/01/01 11:03:21;;;;;;;1.52;0.60;;;20.70;25.90;;;;;;5027866;28;81199;-61
2021/01/01 11:05:47;;;;;;;1.88;0.63;;;21.70;24.60;;;;;;5027127;28;81440;-62
2021/01/01 11:08:13;;;;;;;5.95;1.90;;;23.20;23.50;;;;;;5027428;28;80524;-60
2021/01/01 11:10:39;;;;;;;1.10;0.50;;;24.00;22.60;;;;;;5027434;28;80255;-62
2021/01/01 11:13:06;;;;;;;2.25;0.20;;;24.30;21.90;;;;;;5027429;28;80508;-68
2021/01/01 12:25:23;;;;;;;5.10;0.38;;;22.70;21.70;;;;;;5026723;28;80240;-73
2021/01/01 12:27:55;;;;;;;2.45;0.22;;;22.80;21.90;;;;;;5026418;28;80748;-68
2021/01/01 12:30:21;;;;;;;1.58;0.45;;;23.20;21.50;;;;;;5027477;28;79737;-78
2021/01/01 12:32:48;;;;;;;0.77;0.20;;;23.40;21.40;;;;;;5026497;28;80379;-74
2021/01/01 12:35:14;;;;;;;1.20;0.30;;;22.00;22.30;;;;;;5027241;28;79940;-75
2021/01/01 12:37:40;;;;;;;1.23;0.30;;;21.20;23.20;;;;;;5008223;28;80419;-75
2021/01/01 12:40:09;;;;;;;1.10;0.50;;;18.70;25.70;;;;;;5026558;28;80478;-79
2021/01/01 12:42:35;;;;;;;2.10;0.20;;;16.60;28.00;;;;;;5026718;28;80200;-76
2021/01/01 12:45:02;;;;;;;3.10;0.68;;;14.90;29.70;;;;;;5026326;28;79917;-75
2021/01/01 12:47:30;;;;;;;2.03;0.32;;;13.70;31.60;;;;;;5026697;28;80185;-77
2021/01/01 12:49:56;;;;;;;4.15;0.30;;;12.90;32.80;;;;;;5026112;28;80591;-78
2021/01/01 12:52:21;;;;;;;1.98;0.32;;;12.80;33.30;;;;;;5026920;28;79809;-75
2021/01/01 12:54:47;;;;;;;2.67;1.00;;;13.50;32.40;;;;;;5026378;28;80823;-74
2021/01/01 12:57:13;;;;;;;2.65;0.65;;;13.60;32.20;;;;;;5026754;28;79613;-76
2021/01/01 12:59:39;;;;;;;2.38;0.93;;;12.90;33.10;;;;;;5007831;28;81342;-77
2021/01/01 13:02:04;;;;;;;1.08;0.28;;;13.20;33.40;;;;;;5007998;28;80536;-75
2021/01/01 13:04:30;;;;;;;1.38;0.57;;;14.00;32.20;;;;;;5025704;28;82468;-77
2021/01/01 13:06:56;;;;;;;2.88;0.80;;;13.90;32.30;;;;;;5025989;28;80818;-73
2021/01/01 13:09:22;;;;;;;1.33;0.50;;;13.20;33.20;;;;;;5027611;28;80570;-78
2021/01/01 13:11:48;;;;;;;1.90;0.30;;;13.00;33.80;;;;;;5010907;28;80511;-73
2021/01/01 13:14:15;;;;;;;1.70;0.57;;;13.10;33.70;;;;;;5029363;28;80377;-73
2021/01/01 13:16:42;;;;;;;1.80;0.30;;;14.10;32.50;;;;;;5029425;28;80302;-71
2021/01/01 13:19:08;;;;;;;2.03;0.30;;;15.40;30.90;;;;;;5029211;28;80696;-72
2021/01/01 13:21:37;;;;;;;2.13;0.60;;;15.40;31.10;;;;;;5029233;28;80445;-78
2021/01/01 13:24:04;;;;;;;4.20;0.95;;;15.20;31.50;;;;;;5030723;28;80801;-79
2021/01/01 13:26:31;;;;;;;2.35;0.90;;;15.50;31.00;;;;;;5029970;28;80108;-76
2021/01/01 13:28:58;;;;;;;4.63;1.08;;;15.70;30.60;;;;;;5028886;28;80551;-80
2021/01/01 13:31:33;;;;;;;2.30;0.63;;;16.70;29.80;;;;;;5011364;28;80909;-74
2021/01/01 13:33:59;;;;;;;2.40;0.82;;;17.70;28.10;;;;;;5029174;28;80504;-73
2021/01/01 13:36:25;;;;;;;1.10;0.30;;;17.00;28.50;;;;;;5029173;28;80723;-73
2021/01/01 13:38:51;;;;;;;3.30;0.40;;;15.40;30.40;;;;;;5029632;28;80628;-79
2021/01/01 13:41:16;;;;;;;3.42;0.50;;;14.40;31.80;;;;;;5011258;28;81570;-77
2021/01/01 13:43:44;;;;;;;2.75;1.15;;;13.10;33.60;;;;;;5028993;28;80486;-74
2021/01/01 13:46:29;;;;;;;0.75;0.20;;;12.40;35.00;;;;;;5029022;28;79858;-76
2021/01/01 13:48:56;;;;;;;2.53;0.85;;;12.00;35.40;;;;;;5029042;28;79851;-70
2021/01/01 13:51:28;;;;;;;2.20;0.73;;;11.70;36.30;;;;;;5029017;28;80158;-76
2021/01/01 13:53:55;;;;;;;1.85;0.47;;;11.70;36.60;;;;;;5028881;28;80540;-73
2021/01/01 13:56:21;;;;;;;3.85;1.50;;;11.70;36.40;;;;;;5028966;28;80122;-79
2021/01/01 13:58:48;;;;;;;3.38;1.30;;;11.80;36.30;;;;;;5028213;28;80691;-78
2021/01/01 14:01:18;;;;;;;2.63;1.08;;;11.70;36.30;;;;;;5028753;28;80325;-77
2021/01/01 14:03:44;;;;;;;2.17;0.75;;;11.50;36.50;;;;;;5028803;28;80500;-78
2021/01/01 14:06:10;;;;;;;1.20;0.30;;;11.40;36.80;;;;;;5028967;28;80250;-77
2021/01/01 14:08:36;;;;;;;1.30;0.40;;;11.20;36.80;;;;;;5029031;28;80687;-76